sensor_id;sensor_type;location;lat;lon;timestamp;temperature;humidity
46159;DHT22;74657;45.650;25.590;2024-01-07T00:01:21;4.30;99.90
46159;DHT22;74657;45.650;25.590;2024-01-07T00:03:44;4.20;99.90
46159;DHT22;74657;45.650;25.590;2024-01-07T00:06:07;4.20;99.90
46159;DHT22;74657;45.650;25.590;2024-01-07T00:08:30;4.10;99.90
46159;DHT22;74657;45.650;25.590;2024-01-07T00:10:54;4.10;99.90
46159;DHT22;74657;45.650;25.590;2024-01-07T00:13:17;4.10;99.90
46159;DHT22;74657;45.650;25.590;2024-01-07T00:15:41;4.00;99.90
46159;DHT22;74657;45.650;25.590;2024-01-07T00:18:05;4.00;99.90
46159;DHT22;74657;45.650;25.590;2024-01-07T00:20:27;3.90;99.90
46159;DHT22;74657;45.650;25.590;2024-01-07T00:22:50;3.80;99.90
46159;DHT22;74657;45.650;25.590;2024-01-07T00:25:13;3.70;99.90
46159;DHT22;74657;45.650;25.590;2024-01-07T00:27:37;3.60;99.90
46159;DHT22;74657;45.650;25.590;2024-01-07T00:30:00;3.60;99.90
46159;DHT22;74657;45.650;25.590;2024-01-07T00:32:23;3.50;99.90
46159;DHT22;74657;45.650;25.590;2024-01-07T00:34:47;3.50;99.90
46159;DHT22;74657;45.650;25.590;2024-01-07T00:37:15;3.70;99.90
46159;DHT22;74657;45.650;25.590;2024-01-07T00:39:38;3.60;99.90
46159;DHT22;74657;45.650;25.590;2024-01-07T00:42:04;3.60;99.90
46159;DHT22;74657;45.650;25.590;2024-01-07T00:44:28;3.60;99.90
46159;DHT22;74657;45.650;25.590;2024-01-07T00:46:54;3.60;99.90
46159;DHT22;74657;45.650;25.590;2024-01-07T00:49:17;3.60;99.90
46159;DHT22;74657;45.650;25.590;2024-01-07T00:51:40;3.50;99.90
46159;DHT22;74657;45.650;25.590;2024-01-07T00:54:03;3.40;99.90
46159;DHT22;74657;45.650;25.590;2024-01-07T00:56:26;3.40;99.90
46159;DHT22;74657;45.650;25.590;2024-01-07T00:58:49;3.40;99.90
46159;DHT22;74657;45.650;25.590;2024-01-07T01:01:14;3.40;99.90
46159;DHT22;74657;45.650;25.590;2024-01-07T01:03:38;3.30;99.90
46159;DHT22;74657;45.650;25.590;2024-01-07T01:06:02;3.30;99.90
46159;DHT22;74657;45.650;25.590;2024-01-07T01:08:25;3.30;99.90
46159;DHT22;74657;45.650;25.590;2024-01-07T01:10:48;3.30;99.90
46159;DHT22;74657;45.650;25.590;2024-01-07T01:13:11;3.30;99.90
46159;DHT22;74657;45.650;25.590;2024-01-07T01:15:34;3.40;99.90
46159;DHT22;74657;45.650;25.590;2024-01-07T01:17:59;3.40;99.90
46159;DHT22;74657;45.650;25.590;2024-01-07T01:20:22;3.50;99.90
46159;DHT22;74657;45.650;25.590;2024-01-07T01:22:45;3.50;99.90
46159;DHT22;74657;45.650;25.590;2024-01-07T01:25:08;3.60;99.90
46159;DHT22;74657;45.650;25.590;2024-01-07T01:27:31;3.70;99.90
46159;DHT22;74657;45.650;25.590;2024-01-07T01:29:54;3.70;99.90
46159;DHT22;74657;45.650;25.590;2024-01-07T01:32:17;3.80;99.90
46159;DHT22;74657;45.650;25.590;2024-01-07T01:34:41;3.90;99.90
46159;DHT22;74657;45.650;25.590;2024-01-07T01:37:04;3.90;99.90
46159;DHT22;74657;45.650;25.590;2024-01-07T01:39:28;3.90;99.90
46159;DHT22;74657;45.650;25.590;2024-01-07T01:41:54;3.90;99.90
46159;DHT22;74657;45.650;25.590;2024-01-07T01:44:17;4.10;99.90
46159;DHT22;74657;45.650;25.590;2024-01-07T01:46:40;4.00;99.90
46159;DHT22;74657;45.650;25.590;2024-01-07T01:49:03;4.00;99.90
46159;DHT22;74657;45.650;25.590;2024-01-07T01:51:28;4.00;99.90
46159;DHT22;74657;45.650;25.590;2024-01-07T01:53:51;4.00;99.90
46159;DHT22;74657;45.650;25.590;2024-01-07T01:56:14;4.00;99.90
46159;DHT22;74657;45.650;25.590;2024-01-07T01:58:37;4.00;99.90
46159;DHT22;74657;45.650;25.590;2024-01-07T02:01:00;4.00;99.90
46159;DHT22;74657;45.650;25.590;2024-01-07T02:03:23;4.10;99.90
46159;DHT22;74657;45.650;25.590;2024-01-07T02:05:48;4.10;99.90
46159;DHT22;74657;45.650;25.590;2024-01-07T02:08:13;4.10;99.90
46159;DHT22;74657;45.650;25.590;2024-01-07T02:10:36;4.20;99.90
46159;DHT22;74657;45.650;25.590;2024-01-07T02:13:03;4.30;99.90
46159;DHT22;74657;45.650;25.590;2024-01-07T02:15:26;4.30;99.90
46159;DHT22;74657;45.650;25.590;2024-01-07T02:17:49;4.30;99.90
46159;DHT22;74657;45.650;25.590;2024-01-07T02:20:12;4.40;99.90
46159;DHT22;74657;45.650;25.590;2024-01-07T02:22:35;4.40;99.90
46159;DHT22;74657;45.650;25.590;2024-01-07T02:24:59;4.40;99.90
46159;DHT22;74657;45.650;25.590;2024-01-07T02:27:22;4.40;99.90
46159;DHT22;74657;45.650;25.590;2024-01-07T02:29:46;4.30;99.90
46159;DHT22;74657;45.650;25.590;2024-01-07T02:32:10;4.30;99.90
46159;DHT22;74657;45.650;25.590;2024-01-07T02:34:33;4.30;99.90
46159;DHT22;74657;45.650;25.590;2024-01-07T02:36:56;4.30;99.90
46159;DHT22;74657;45.650;25.590;2024-01-07T02:39:19;4.20;99.90
46159;DHT22;74657;45.650;25.590;2024-01-07T02:41:44;4.20;99.90
46159;DHT22;74657;45.650;25.590;2024-01-07T02:44:07;4.20;99.90
46159;DHT22;74657;45.650;25.590;2024-01-07T02:46:33;4.10;99.90
46159;DHT22;74657;45.650;25.590;2024-01-07T02:48:56;4.00;99.90
46159;DHT22;74657;45.650;25.590;2024-01-07T02:51:20;3.90;99.90
46159;DHT22;74657;45.650;25.590;2024-01-07T02:53:43;3.80;99.90
46159;DHT22;74657;45.650;25.590;2024-01-07T02:56:06;3.70;99.90
46159;DHT22;74657;45.650;25.590;2024-01-07T02:58:31;3.60;99.90
46159;DHT22;74657;45.650;25.590;2024-01-07T03:00:55;3.50;99.90
46159;DHT22;74657;45.650;25.590;2024-01-07T03:03:18;3.50;99.90
46159;DHT22;74657;45.650;25.590;2024-01-07T03:05:41;3.40;99.90
46159;DHT22;74657;45.650;25.590;2024-01-07T03:08:04;3.30;99.90
46159;DHT22;74657;45.650;25.590;2024-01-07T03:10:27;3.30;99.90
46159;DHT22;74657;45.650;25.590;2024-01-07T03:12:51;3.30;99.90
46159;DHT22;74657;45.650;25.590;2024-01-07T03:15:15;3.40;99.90
46159;DHT22;74657;45.650;25.590;2024-01-07T03:17:38;3.40;99.90
46159;DHT22;74657;45.650;25.590;2024-01-07T03:20:01;3.40;99.90
46159;DHT22;74657;45.650;25.590;2024-01-07T03:22:24;3.30;99.90
46159;DHT22;74657;45.650;25.590;2024-01-07T03:24:47;3.30;99.90
46159;DHT22;74657;45.650;25.590;2024-01-07T03:27:10;3.30;99.90
46159;DHT22;74657;45.650;25.590;2024-01-07T03:29:33;3.30;99.90
46159;DHT22;74657;45.650;25.590;2024-01-07T03:31:58;3.30;99.90
46159;DHT22;74657;45.650;25.590;2024-01-07T03:34:21;3.30;99.90
46159;DHT22;74657;45.650;25.590;2024-01-07T03:36:44;3.40;99.90
46159;DHT22;74657;45.650;25.590;2024-01-07T03:39:07;3.40;99.90
46159;DHT22;74657;45.650;25.590;2024-01-07T03:41:31;3.30;99.90
46159;DHT22;74657;45.650;25.590;2024-01-07T03:43:54;3.30;99.90
46159;DHT22;74657;45.650;25.590;2024-01-07T03:46:18;3.30;99.90
46159;DHT22;74657;45.650;25.590;2024-01-07T03:48:42;3.30;99.90
46159;DHT22;74657;45.650;25.590;2024-01-07T03:51:06;3.20;99.90
46159;DHT22;74657;45.650;25.590;2024-01-07T03:53:29;3.20;99.90
46159;DHT22;74657;45.650;25.590;2024-01-07T03:55:52;3.20;99.90
46159;DHT22;74657;45.650;25.590;2024-01-07T03:58:15;3.10;99.90
46159;DHT22;74657;45.650;25.590;2024-01-07T04:00:38;3.10;99.90
46159;DHT22;74657;45.650;25.590;2024-01-07T04:03:03;3.10;99.90
46159;DHT22;74657;45.650;25.590;2024-01-07T04:05:28;3.00;99.90
46159;DHT22;74657;45.650;25.590;2024-01-07T04:07:51;3.00;99.90
46159;DHT22;74657;45.650;25.590;2024-01-07T04:10:15;3.00;99.90
46159;DHT22;74657;45.650;25.590;2024-01-07T04:12:38;3.10;99.90
46159;DHT22;74657;45.650;25.590;2024-01-07T04:15:04;3.00;99.90
46159;DHT22;74657;45.650;25.590;2024-01-07T04:17:28;3.00;99.90
46159;DHT22;74657;45.650;25.590;2024-01-07T04:19:51;3.00;99.90
46159;DHT22;74657;45.650;25.590;2024-01-07T04:22:16;3.00;99.90
46159;DHT22;74657;45.650;25.590;2024-01-07T04:24:41;3.10;99.90
46159;DHT22;74657;45.650;25.590;2024-01-07T04:27:04;3.10;99.90
46159;DHT22;74657;45.650;25.590;2024-01-07T04:29:27;3.10;99.90
46159;DHT22;74657;45.650;25.590;2024-01-07T04:31:50;3.20;99.90
46159;DHT22;74657;45.650;25.590;2024-01-07T04:34:12;3.20;99.90
46159;DHT22;74657;45.650;25.590;2024-01-07T04:36:36;3.20;99.90
46159;DHT22;74657;45.650;25.590;2024-01-07T04:39:00;3.20;99.90
46159;DHT22;74657;45.650;25.590;2024-01-07T04:41:23;3.30;99.90
46159;DHT22;74657;45.650;25.590;2024-01-07T04:43:46;3.30;99.90
46159;DHT22;74657;45.650;25.590;2024-01-07T04:46:11;3.30;99.90
46159;DHT22;74657;45.650;25.590;2024-01-07T04:48:34;3.40;99.90
46159;DHT22;74657;45.650;25.590;2024-01-07T04:50:56;3.40;99.90
46159;DHT22;74657;45.650;25.590;2024-01-07T04:53:19;3.40;99.90
46159;DHT22;74657;45.650;25.590;2024-01-07T04:55:44;3.40;99.90
46159;DHT22;74657;45.650;25.590;2024-01-07T04:58:07;3.50;99.90
46159;DHT22;74657;45.650;25.590;2024-01-07T05:00:30;3.50;99.90
46159;DHT22;74657;45.650;25.590;2024-01-07T05:02:53;3.50;99.90
46159;DHT22;74657;45.650;25.590;2024-01-07T05:05:16;3.40;99.90
46159;DHT22;74657;45.650;25.590;2024-01-07T05:07:39;3.40;99.90
46159;DHT22;74657;45.650;25.590;2024-01-07T05:10:05;3.30;99.90
46159;DHT22;74657;45.650;25.590;2024-01-07T05:12:30;3.30;99.90
46159;DHT22;74657;45.650;25.590;2024-01-07T05:14:53;3.20;99.90
46159;DHT22;74657;45.650;25.590;2024-01-07T05:17:16;3.00;99.90
46159;DHT22;74657;45.650;25.590;2024-01-07T05:19:43;2.90;99.90
46159;DHT22;74657;45.650;25.590;2024-01-07T05:22:06;2.90;99.90
46159;DHT22;74657;45.650;25.590;2024-01-07T05:24:29;2.80;99.90
46159;DHT22;74657;45.650;25.590;2024-01-07T05:26:54;2.80;99.90
46159;DHT22;74657;45.650;25.590;2024-01-07T05:29:19;2.80;99.90
46159;DHT22;74657;45.650;25.590;2024-01-07T05:31:42;2.90;99.90
46159;DHT22;74657;45.650;25.590;2024-01-07T05:34:05;2.90;99.90
46159;DHT22;74657;45.650;25.590;2024-01-07T05:36:29;2.90;99.90
46159;DHT22;74657;45.650;25.590;2024-01-07T05:38:52;2.90;99.90
46159;DHT22;74657;45.650;25.590;2024-01-07T05:41:15;2.90;99.90
46159;DHT22;74657;45.650;25.590;2024-01-07T05:43:38;2.90;99.90
46159;DHT22;74657;45.650;25.590;2024-01-07T05:46:03;2.90;99.90
46159;DHT22;74657;45.650;25.590;2024-01-07T05:48:26;3.00;99.90
46159;DHT22;74657;45.650;25.590;2024-01-07T05:50:49;2.90;99.90
46159;DHT22;74657;45.650;25.590;2024-01-07T05:53:13;3.00;99.90
46159;DHT22;74657;45.650;25.590;2024-01-07T05:55:35;3.00;99.90
46159;DHT22;74657;45.650;25.590;2024-01-07T05:57:58;3.00;99.90
46159;DHT22;74657;45.650;25.590;2024-01-07T06:00:22;3.00;99.90
46159;DHT22;74657;45.650;25.590;2024-01-07T06:02:46;3.10;99.90
46159;DHT22;74657;45.650;25.590;2024-01-07T06:05:09;3.10;99.90
46159;DHT22;74657;45.650;25.590;2024-01-07T06:07:33;3.10;99.90
46159;DHT22;74657;45.650;25.590;2024-01-07T06:09:57;3.10;99.90
46159;DHT22;74657;45.650;25.590;2024-01-07T06:12:20;3.10;99.90
46159;DHT22;74657;45.650;25.590;2024-01-07T06:14:43;3.20;99.90
46159;DHT22;74657;45.650;25.590;2024-01-07T06:17:05;3.20;99.90
46159;DHT22;74657;45.650;25.590;2024-01-07T06:19:30;3.30;99.90
46159;DHT22;74657;45.650;25.590;2024-01-07T06:21:53;3.30;99.90
46159;DHT22;74657;45.650;25.590;2024-01-07T06:24:15;3.40;99.90
46159;DHT22;74657;45.650;25.590;2024-01-07T06:26:38;3.50;99.90
46159;DHT22;74657;45.650;25.590;2024-01-07T06:29:01;3.60;99.90
46159;DHT22;74657;45.650;25.590;2024-01-07T06:31:24;3.70;99.90
46159;DHT22;74657;45.650;25.590;2024-01-07T06:33:47;3.80;99.90
46159;DHT22;74657;45.650;25.590;2024-01-07T06:36:12;3.90;99.90
46159;DHT22;74657;45.650;25.590;2024-01-07T06:38:35;3.90;99.90
46159;DHT22;74657;45.650;25.590;2024-01-07T06:40:58;3.90;99.90
46159;DHT22;74657;45.650;25.590;2024-01-07T06:43:25;3.90;99.90
46159;DHT22;74657;45.650;25.590;2024-01-07T06:45:47;4.00;99.90
46159;DHT22;74657;45.650;25.590;2024-01-07T06:48:11;4.10;99.90
46159;DHT22;74657;45.650;25.590;2024-01-07T06:50:34;4.10;99.90
46159;DHT22;74657;45.650;25.590;2024-01-07T06:52:58;4.20;99.90
46159;DHT22;74657;45.650;25.590;2024-01-07T06:55:22;4.20;99.90
46159;DHT22;74657;45.650;25.590;2024-01-07T06:57:44;4.20;99.90
46159;DHT22;74657;45.650;25.590;2024-01-07T07:00:08;4.30;99.90
46159;DHT22;74657;45.650;25.590;2024-01-07T07:02:31;4.30;99.90
46159;DHT22;74657;45.650;25.590;2024-01-07T07:04:54;4.30;99.90
46159;DHT22;74657;45.650;25.590;2024-01-07T07:07:17;4.30;99.90
46159;DHT22;74657;45.650;25.590;2024-01-07T07:09:41;4.40;99.90
46159;DHT22;74657;45.650;25.590;2024-01-07T07:12:05;4.30;99.90
46159;DHT22;74657;45.650;25.590;2024-01-07T07:14:29;4.40;99.90
46159;DHT22;74657;45.650;25.590;2024-01-07T07:16:52;4.40;99.90
46159;DHT22;74657;45.650;25.590;2024-01-07T07:19:14;4.50;99.90
46159;DHT22;74657;45.650;25.590;2024-01-07T07:21:38;4.50;99.90
46159;DHT22;74657;45.650;25.590;2024-01-07T07:24:01;4.50;99.90
46159;DHT22;74657;45.650;25.590;2024-01-07T07:26:25;4.60;99.90
46159;DHT22;74657;45.650;25.590;2024-01-07T07:28:48;4.60;99.90
46159;DHT22;74657;45.650;25.590;2024-01-07T07:31:11;4.50;99.90
46159;DHT22;74657;45.650;25.590;2024-01-07T07:33:34;4.50;99.90
46159;DHT22;74657;45.650;25.590;2024-01-07T07:35:57;4.50;99.90
46159;DHT22;74657;45.650;25.590;2024-01-07T07:38:20;4.50;99.90
46159;DHT22;74657;45.650;25.590;2024-01-07T07:40:43;4.50;99.90
46159;DHT22;74657;45.650;25.590;2024-01-07T07:43:12;4.60;99.90
46159;DHT22;74657;45.650;25.590;2024-01-07T07:45:37;4.60;99.90
46159;DHT22;74657;45.650;25.590;2024-01-07T07:48:00;4.60;99.90
46159;DHT22;74657;45.650;25.590;2024-01-07T07:50:23;4.60;99.90
46159;DHT22;74657;45.650;25.590;2024-01-07T07:52:45;4.60;99.90
46159;DHT22;74657;45.650;25.590;2024-01-07T07:55:08;4.60;99.90
46159;DHT22;74657;45.650;25.590;2024-01-07T07:57:31;4.60;99.90
46159;DHT22;74657;45.650;25.590;2024-01-07T07:59:55;4.70;99.90
46159;DHT22;74657;45.650;25.590;2024-01-07T08:02:25;4.70;99.90
46159;DHT22;74657;45.650;25.590;2024-01-07T08:04:48;4.80;99.90
46159;DHT22;74657;45.650;25.590;2024-01-07T08:07:12;4.80;99.90
46159;DHT22;74657;45.650;25.590;2024-01-07T08:09:35;4.90;99.90
46159;DHT22;74657;45.650;25.590;2024-01-07T08:11:58;4.90;99.90
46159;DHT22;74657;45.650;25.590;2024-01-07T08:14:21;4.90;99.90
46159;DHT22;74657;45.650;25.590;2024-01-07T08:16:45;5.00;99.90
46159;DHT22;74657;45.650;25.590;2024-01-07T08:19:08;5.00;99.90
46159;DHT22;74657;45.650;25.590;2024-01-07T08:21:31;5.10;99.90
46159;DHT22;74657;45.650;25.590;2024-01-07T08:23:54;5.10;99.90
46159;DHT22;74657;45.650;25.590;2024-01-07T08:26:18;5.20;99.90
46159;DHT22;74657;45.650;25.590;2024-01-07T08:28:42;5.30;99.90
46159;DHT22;74657;45.650;25.590;2024-01-07T08:31:05;5.40;99.90
46159;DHT22;74657;45.650;25.590;2024-01-07T08:33:30;5.50;99.90
46159;DHT22;74657;45.650;25.590;2024-01-07T08:35:55;5.50;99.90
46159;DHT22;74657;45.650;25.590;2024-01-07T08:38:17;5.50;99.90
46159;DHT22;74657;45.650;25.590;2024-01-07T08:40:41;5.50;99.90
46159;DHT22;74657;45.650;25.590;2024-01-07T08:43:03;5.50;99.90
46159;DHT22;74657;45.650;25.590;2024-01-07T08:45:26;5.40;99.90
46159;DHT22;74657;45.650;25.590;2024-01-07T08:47:50;5.50;99.90
46159;DHT22;74657;45.650;25.590;2024-01-07T08:50:14;5.50;99.90
46159;DHT22;74657;45.650;25.590;2024-01-07T08:52:37;5.50;99.90
46159;DHT22;74657;45.650;25.590;2024-01-07T08:55:00;5.40;99.90
46159;DHT22;74657;45.650;25.590;2024-01-07T08:57:23;5.40;99.90
46159;DHT22;74657;45.650;25.590;2024-01-07T08:59:46;5.40;99.90
46159;DHT22;74657;45.650;25.590;2024-01-07T09:02:08;5.50;99.90
46159;DHT22;74657;45.650;25.590;2024-01-07T09:04:31;5.50;99.90
46159;DHT22;74657;45.650;25.590;2024-01-07T09:06:57;5.60;99.90
46159;DHT22;74657;45.650;25.590;2024-01-07T09:09:19;5.70;99.90
46159;DHT22;74657;45.650;25.590;2024-01-07T09:11:58;5.70;99.90
46159;DHT22;74657;45.650;25.590;2024-01-07T09:14:22;5.80;99.90
46159;DHT22;74657;45.650;25.590;2024-01-07T09:16:46;5.90;99.90
46159;DHT22;74657;45.650;25.590;2024-01-07T09:19:09;6.00;99.90
46159;DHT22;74657;45.650;25.590;2024-01-07T09:21:35;6.00;99.90
46159;DHT22;74657;45.650;25.590;2024-01-07T09:23:58;6.10;99.90
46159;DHT22;74657;45.650;25.590;2024-01-07T09:26:21;6.10;99.90
46159;DHT22;74657;45.650;25.590;2024-01-07T09:28:45;6.10;99.90
46159;DHT22;74657;45.650;25.590;2024-01-07T09:31:08;6.10;99.90
46159;DHT22;74657;45.650;25.590;2024-01-07T09:33:31;6.10;99.90
46159;DHT22;74657;45.650;25.590;2024-01-07T09:35:54;6.10;99.90
46159;DHT22;74657;45.650;25.590;2024-01-07T09:38:30;6.10;99.90
46159;DHT22;74657;45.650;25.590;2024-01-07T09:40:53;6.10;99.90
46159;DHT22;74657;45.650;25.590;2024-01-07T09:43:16;6.20;99.90
46159;DHT22;74657;45.650;25.590;2024-01-07T09:45:44;6.30;99.90
46159;DHT22;74657;45.650;25.590;2024-01-07T09:48:09;6.30;99.90
46159;DHT22;74657;45.650;25.590;2024-01-07T09:50:32;6.30;99.90
46159;DHT22;74657;45.650;25.590;2024-01-07T09:52:56;6.30;99.90
46159;DHT22;74657;45.650;25.590;2024-01-07T09:55:25;6.30;99.90
46159;DHT22;74657;45.650;25.590;2024-01-07T09:57:49;6.30;99.90
46159;DHT22;74657;45.650;25.590;2024-01-07T10:00:13;6.30;99.90
46159;DHT22;74657;45.650;25.590;2024-01-07T10:02:38;6.40;99.90
46159;DHT22;74657;45.650;25.590;2024-01-07T10:05:02;6.50;99.90
46159;DHT22;74657;45.650;25.590;2024-01-07T10:07:25;6.50;99.90
46159;DHT22;74657;45.650;25.590;2024-01-07T10:09:48;6.50;99.90
46159;DHT22;74657;45.650;25.590;2024-01-07T10:12:11;6.50;99.90
46159;DHT22;74657;45.650;25.590;2024-01-07T10:14:35;6.50;99.90
46159;DHT22;74657;45.650;25.590;2024-01-07T10:16:58;6.50;99.90
46159;DHT22;74657;45.650;25.590;2024-01-07T10:19:22;6.40;99.90
46159;DHT22;74657;45.650;25.590;2024-01-07T10:21:46;6.50;99.90
46159;DHT22;74657;45.650;25.590;2024-01-07T10:24:10;6.40;99.90
46159;DHT22;74657;45.650;25.590;2024-01-07T10:26:33;6.40;99.90
46159;DHT22;74657;45.650;25.590;2024-01-07T10:28:59;6.30;99.90
46159;DHT22;74657;45.650;25.590;2024-01-07T10:31:21;6.20;99.90
46159;DHT22;74657;45.650;25.590;2024-01-07T10:33:45;6.20;99.90
46159;DHT22;74657;45.650;25.590;2024-01-07T10:36:10;6.10;99.90
46159;DHT22;74657;45.650;25.590;2024-01-07T10:38:33;6.10;99.90
46159;DHT22;74657;45.650;25.590;2024-01-07T10:40:59;6.10;99.90
46159;DHT22;74657;45.650;25.590;2024-01-07T10:43:22;6.00;99.90
46159;DHT22;74657;45.650;25.590;2024-01-07T10:45:47;6.10;99.90
46159;DHT22;74657;45.650;25.590;2024-01-07T10:48:12;6.20;99.90
46159;DHT22;74657;45.650;25.590;2024-01-07T10:50:37;6.20;99.90
46159;DHT22;74657;45.650;25.590;2024-01-07T10:53:04;6.20;99.90
46159;DHT22;74657;45.650;25.590;2024-01-07T10:55:33;6.10;99.90
46159;DHT22;74657;45.650;25.590;2024-01-07T10:57:58;6.00;99.90
46159;DHT22;74657;45.650;25.590;2024-01-07T11:00:22;6.00;99.90
46159;DHT22;74657;45.650;25.590;2024-01-07T11:02:54;5.90;99.90
46159;DHT22;74657;45.650;25.590;2024-01-07T11:05:26;5.90;99.90
46159;DHT22;74657;45.650;25.590;2024-01-07T11:07:55;5.80;99.90
46159;DHT22;74657;45.650;25.590;2024-01-07T11:10:25;5.70;99.90
46159;DHT22;74657;45.650;25.590;2024-01-07T11:12:58;5.70;99.90
46159;DHT22;74657;45.650;25.590;2024-01-07T11:15:52;5.60;99.90
46159;DHT22;74657;45.650;25.590;2024-01-07T11:18:17;5.60;99.90
46159;DHT22;74657;45.650;25.590;2024-01-07T11:20:40;5.50;99.90
46159;DHT22;74657;45.650;25.590;2024-01-07T11:23:29;5.50;99.90
46159;DHT22;74657;45.650;25.590;2024-01-07T11:25:57;5.40;99.90
46159;DHT22;74657;45.650;25.590;2024-01-07T11:28:46;5.40;99.90
46159;DHT22;74657;45.650;25.590;2024-01-07T11:31:10;5.40;99.90
46159;DHT22;74657;45.650;25.590;2024-01-07T11:33:32;5.40;99.90
46159;DHT22;74657;45.650;25.590;2024-01-07T11:35:56;5.40;99.90
46159;DHT22;74657;45.650;25.590;2024-01-07T11:38:22;5.30;99.90
46159;DHT22;74657;45.650;25.590;2024-01-07T11:40:47;5.30;99.90
46159;DHT22;74657;45.650;25.590;2024-01-07T11:43:13;5.30;99.90
46159;DHT22;74657;45.650;25.590;2024-01-07T11:45:36;5.30;99.90
46159;DHT22;74657;45.650;25.590;2024-01-07T11:47:59;5.30;99.90
46159;DHT22;74657;45.650;25.590;2024-01-07T11:50:23;5.40;99.90
46159;DHT22;74657;45.650;25.590;2024-01-07T11:52:45;5.20;99.90
46159;DHT22;74657;45.650;25.590;2024-01-07T11:55:09;5.20;99.90
46159;DHT22;74657;45.650;25.590;2024-01-07T11:57:32;5.20;99.90
46159;DHT22;74657;45.650;25.590;2024-01-07T11:59:56;5.10;99.90
46159;DHT22;74657;45.650;25.590;2024-01-07T12:02:19;5.10;99.90
46159;DHT22;74657;45.650;25.590;2024-01-07T12:04:42;5.10;99.90
46159;DHT22;74657;45.650;25.590;2024-01-07T12:07:05;5.00;99.90
46159;DHT22;74657;45.650;25.590;2024-01-07T12:09:28;5.00;99.90
46159;DHT22;74657;45.650;25.590;2024-01-07T12:11:51;4.90;99.90
46159;DHT22;74657;45.650;25.590;2024-01-07T12:14:14;5.00;99.90
46159;DHT22;74657;45.650;25.590;2024-01-07T12:16:39;5.00;99.90
46159;DHT22;74657;45.650;25.590;2024-01-07T12:19:02;5.00;99.90
46159;DHT22;74657;45.650;25.590;2024-01-07T12:21:25;4.90;99.90
46159;DHT22;74657;45.650;25.590;2024-01-07T12:23:50;4.90;99.90
46159;DHT22;74657;45.650;25.590;2024-01-07T12:26:13;4.90;99.90
46159;DHT22;74657;45.650;25.590;2024-01-07T12:28:36;4.90;99.90
46159;DHT22;74657;45.650;25.590;2024-01-07T12:30:59;4.80;99.90
46159;DHT22;74657;45.650;25.590;2024-01-07T12:33:26;4.80;99.90
46159;DHT22;74657;45.650;25.590;2024-01-07T12:35:50;4.80;99.90
46159;DHT22;74657;45.650;25.590;2024-01-07T12:38:14;4.70;99.90
46159;DHT22;74657;45.650;25.590;2024-01-07T12:40:37;4.70;99.90
46159;DHT22;74657;45.650;25.590;2024-01-07T12:43:00;4.70;99.90
46159;DHT22;74657;45.650;25.590;2024-01-07T12:45:24;4.70;99.90
46159;DHT22;74657;45.650;25.590;2024-01-07T12:47:47;4.70;99.90
46159;DHT22;74657;45.650;25.590;2024-01-07T12:50:12;4.70;99.90
46159;DHT22;74657;45.650;25.590;2024-01-07T12:52:34;4.60;99.90
46159;DHT22;74657;45.650;25.590;2024-01-07T12:54:58;4.60;99.90
46159;DHT22;74657;45.650;25.590;2024-01-07T12:57:21;4.60;99.90
46159;DHT22;74657;45.650;25.590;2024-01-07T12:59:45;4.50;99.90
46159;DHT22;74657;45.650;25.590;2024-01-07T13:02:08;4.50;99.90
46159;DHT22;74657;45.650;25.590;2024-01-07T13:04:31;4.50;99.90
46159;DHT22;74657;45.650;25.590;2024-01-07T13:06:55;4.50;99.90
46159;DHT22;74657;45.650;25.590;2024-01-07T13:09:18;4.50;99.90
46159;DHT22;74657;45.650;25.590;2024-01-07T13:11:41;4.40;99.90
46159;DHT22;74657;45.650;25.590;2024-01-07T13:14:04;4.40;99.90
46159;DHT22;74657;45.650;25.590;2024-01-07T13:16:27;4.40;99.90
46159;DHT22;74657;45.650;25.590;2024-01-07T13:18:50;4.40;99.90
46159;DHT22;74657;45.650;25.590;2024-01-07T13:21:13;4.40;99.90
46159;DHT22;74657;45.650;25.590;2024-01-07T13:23:37;4.30;99.90
46159;DHT22;74657;45.650;25.590;2024-01-07T13:26:02;4.40;99.90
46159;DHT22;74657;45.650;25.590;2024-01-07T13:28:27;4.30;99.90
46159;DHT22;74657;45.650;25.590;2024-01-07T13:30:51;4.20;99.90
46159;DHT22;74657;45.650;25.590;2024-01-07T13:33:14;4.20;99.90
46159;DHT22;74657;45.650;25.590;2024-01-07T13:35:39;4.20;99.90
46159;DHT22;74657;45.650;25.590;2024-01-07T13:38:02;4.20;99.90
46159;DHT22;74657;45.650;25.590;2024-01-07T13:40:27;4.20;99.90
46159;DHT22;74657;45.650;25.590;2024-01-07T13:42:50;4.20;99.90
46159;DHT22;74657;45.650;25.590;2024-01-07T13:45:14;4.10;99.90
46159;DHT22;74657;45.650;25.590;2024-01-07T13:47:38;4.00;99.90
46159;DHT22;74657;45.650;25.590;2024-01-07T13:50:01;3.90;99.90
46159;DHT22;74657;45.650;25.590;2024-01-07T13:52:25;3.90;99.90
46159;DHT22;74657;45.650;25.590;2024-01-07T13:54:50;3.80;99.90
46159;DHT22;74657;45.650;25.590;2024-01-07T13:57:15;3.90;99.90
46159;DHT22;74657;45.650;25.590;2024-01-07T13:59:37;3.90;99.90
46159;DHT22;74657;45.650;25.590;2024-01-07T14:02:00;3.80;99.90
46159;DHT22;74657;45.650;25.590;2024-01-07T14:04:24;3.90;99.90
46159;DHT22;74657;45.650;25.590;2024-01-07T14:06:48;3.80;99.90
46159;DHT22;74657;45.650;25.590;2024-01-07T14:09:16;3.90;99.90
46159;DHT22;74657;45.650;25.590;2024-01-07T14:11:38;3.80;99.90
46159;DHT22;74657;45.650;25.590;2024-01-07T14:14:03;3.80;99.90
46159;DHT22;74657;45.650;25.590;2024-01-07T14:16:26;3.80;99.90
46159;DHT22;74657;45.650;25.590;2024-01-07T14:18:49;3.70;99.90
46159;DHT22;74657;45.650;25.590;2024-01-07T14:21:12;3.70;99.90
46159;DHT22;74657;45.650;25.590;2024-01-07T14:23:35;3.70;99.90
46159;DHT22;74657;45.650;25.590;2024-01-07T14:25:57;3.70;99.90
46159;DHT22;74657;45.650;25.590;2024-01-07T14:28:20;3.70;99.90
46159;DHT22;74657;45.650;25.590;2024-01-07T14:30:45;3.70;99.90
46159;DHT22;74657;45.650;25.590;2024-01-07T14:33:08;3.70;99.90
46159;DHT22;74657;45.650;25.590;2024-01-07T14:35:31;3.60;99.90
46159;DHT22;74657;45.650;25.590;2024-01-07T14:37:55;3.50;99.90
46159;DHT22;74657;45.650;25.590;2024-01-07T14:40:18;3.50;99.90
46159;DHT22;74657;45.650;25.590;2024-01-07T14:42:41;3.40;99.90
46159;DHT22;74657;45.650;25.590;2024-01-07T14:45:05;3.40;99.90
46159;DHT22;74657;45.650;25.590;2024-01-07T14:47:29;3.40;99.90
46159;DHT22;74657;45.650;25.590;2024-01-07T14:49:52;3.40;99.90
46159;DHT22;74657;45.650;25.590;2024-01-07T14:52:15;3.40;99.90
46159;DHT22;74657;45.650;25.590;2024-01-07T14:54:38;3.40;99.90
46159;DHT22;74657;45.650;25.590;2024-01-07T14:57:01;3.40;99.90
46159;DHT22;74657;45.650;25.590;2024-01-07T14:59:25;3.40;99.90
46159;DHT22;74657;45.650;25.590;2024-01-07T15:01:48;3.40;99.90
46159;DHT22;74657;45.650;25.590;2024-01-07T15:04:12;3.40;99.90
46159;DHT22;74657;45.650;25.590;2024-01-07T15:06:40;3.40;99.90
46159;DHT22;74657;45.650;25.590;2024-01-07T15:09:05;3.40;99.90